sensor_id;sensor_type;location;lat;lon;timestamp;P1;durP1;ratioP1;P2;durP2;ratioP2
53879;SDS011;39791;53.184;5.486;2024-02-16T00:00:17;52.15;;;47.03;;
53879;SDS011;39791;53.184;5.486;2024-02-16T00:02:43;42.70;;;38.28;;
53879;SDS011;39791;53.184;5.486;2024-02-16T00:05:09;48.28;;;43.40;;
53879;SDS011;39791;53.184;5.486;2024-02-16T00:07:37;45.45;;;40.65;;
53879;SDS011;39791;53.184;5.486;2024-02-16T00:10:03;54.45;;;49.13;;
53879;SDS011;39791;53.184;5.486;2024-02-16T00:12:30;52.65;;;47.50;;
53879;SDS011;39791;53.184;5.486;2024-02-16T00:14:57;46.35;;;41.47;;
53879;SDS011;39791;53.184;5.486;2024-02-16T00:17:23;45.25;;;40.75;;
53879;SDS011;39791;53.184;5.486;2024-02-16T00:19:51;47.60;;;39.15;;
53879;SDS011;39791;53.184;5.486;2024-02-16T00:22:17;44.60;;;39.90;;
53879;SDS011;39791;53.184;5.486;2024-02-16T00:24:43;44.28;;;39.63;;
53879;SDS011;39791;53.184;5.486;2024-02-16T00:27:09;43.47;;;38.88;;
53879;SDS011;39791;53.184;5.486;2024-02-16T00:29:35;42.28;;;37.70;;
53879;SDS011;39791;53.184;5.486;2024-02-16T00:32:00;40.85;;;36.55;;
53879;SDS011;39791;53.184;5.486;2024-02-16T00:34:26;49.10;;;44.17;;
53879;SDS011;39791;53.184;5.486;2024-02-16T00:36:52;54.78;;;49.50;;
53879;SDS011;39791;53.184;5.486;2024-02-16T00:39:18;45.40;;;40.78;;
53879;SDS011;39791;53.184;5.486;2024-02-16T00:41:43;50.88;;;45.80;;
53879;SDS011;39791;53.184;5.486;2024-02-16T00:44:11;53.20;;;48.00;;
53879;SDS011;39791;53.184;5.486;2024-02-16T00:46:36;51.47;;;46.47;;
53879;SDS011;39791;53.184;5.486;2024-02-16T00:49:02;51.80;;;46.88;;
53879;SDS011;39791;53.184;5.486;2024-02-16T00:51:28;55.13;;;49.53;;
53879;SDS011;39791;53.184;5.486;2024-02-16T00:53:54;52.88;;;47.63;;
53879;SDS011;39791;53.184;5.486;2024-02-16T00:56:20;51.67;;;46.35;;
53879;SDS011;39791;53.184;5.486;2024-02-16T00:58:46;46.95;;;41.95;;
53879;SDS011;39791;53.184;5.486;2024-02-16T01:01:11;48.42;;;43.00;;
53879;SDS011;39791;53.184;5.486;2024-02-16T01:03:40;61.78;;;55.92;;
53879;SDS011;39791;53.184;5.486;2024-02-16T01:06:06;56.08;;;50.63;;
53879;SDS011;39791;53.184;5.486;2024-02-16T01:08:35;46.08;;;40.70;;
53879;SDS011;39791;53.184;5.486;2024-02-16T01:11:00;50.38;;;44.70;;
53879;SDS011;39791;53.184;5.486;2024-02-16T01:13:26;56.03;;;50.17;;
53879;SDS011;39791;53.184;5.486;2024-02-16T01:15:52;47.75;;;42.10;;
53879;SDS011;39791;53.184;5.486;2024-02-16T01:18:17;56.85;;;50.95;;
53879;SDS011;39791;53.184;5.486;2024-02-16T01:20:43;50.00;;;43.55;;
53879;SDS011;39791;53.184;5.486;2024-02-16T01:23:08;56.13;;;50.33;;
53879;SDS011;39791;53.184;5.486;2024-02-16T01:25:34;57.92;;;51.88;;
53879;SDS011;39791;53.184;5.486;2024-02-16T01:27:59;60.75;;;54.45;;
53879;SDS011;39791;53.184;5.486;2024-02-16T01:30:25;60.20;;;53.95;;
53879;SDS011;39791;53.184;5.486;2024-02-16T01:32:51;69.22;;;62.58;;
53879;SDS011;39791;53.184;5.486;2024-02-16T01:35:17;60.63;;;54.53;;
53879;SDS011;39791;53.184;5.486;2024-02-16T01:37:43;53.20;;;47.53;;
53879;SDS011;39791;53.184;5.486;2024-02-16T01:40:09;51.30;;;45.78;;
53879;SDS011;39791;53.184;5.486;2024-02-16T01:42:46;59.38;;;53.40;;
53879;SDS011;39791;53.184;5.486;2024-02-16T01:45:12;57.75;;;51.80;;
53879;SDS011;39791;53.184;5.486;2024-02-16T01:47:38;57.17;;;51.22;;
53879;SDS011;39791;53.184;5.486;2024-02-16T01:50:06;58.30;;;52.38;;
53879;SDS011;39791;53.184;5.486;2024-02-16T01:52:33;57.08;;;50.95;;
53879;SDS011;39791;53.184;5.486;2024-02-16T01:55:01;58.40;;;52.40;;
53879;SDS011;39791;53.184;5.486;2024-02-16T01:57:34;61.50;;;55.40;;
53879;SDS011;39791;53.184;5.486;2024-02-16T01:59:59;61.83;;;55.50;;
53879;SDS011;39791;53.184;5.486;2024-02-16T02:02:26;62.22;;;55.78;;
53879;SDS011;39791;53.184;5.486;2024-02-16T02:04:52;63.75;;;57.35;;
53879;SDS011;39791;53.184;5.486;2024-02-16T02:07:18;58.85;;;52.90;;
53879;SDS011;39791;53.184;5.486;2024-02-16T02:09:43;55.40;;;47.85;;
53879;SDS011;39791;53.184;5.486;2024-02-16T02:12:09;59.45;;;53.17;;
53879;SDS011;39791;53.184;5.486;2024-02-16T02:14:35;69.15;;;62.55;;
53879;SDS011;39791;53.184;5.486;2024-02-16T02:17:04;53.88;;;48.13;;
53879;SDS011;39791;53.184;5.486;2024-02-16T02:19:29;59.05;;;53.28;;
53879;SDS011;39791;53.184;5.486;2024-02-16T02:21:55;50.45;;;45.17;;
53879;SDS011;39791;53.184;5.486;2024-02-16T02:24:22;58.67;;;52.72;;
53879;SDS011;39791;53.184;5.486;2024-02-16T02:26:47;55.72;;;50.13;;
53879;SDS011;39791;53.184;5.486;2024-02-16T02:29:13;55.15;;;49.42;;
53879;SDS011;39791;53.184;5.486;2024-02-16T02:31:38;56.47;;;50.28;;
53879;SDS011;39791;53.184;5.486;2024-02-16T02:34:05;57.05;;;51.15;;
53879;SDS011;39791;53.184;5.486;2024-02-16T02:36:31;53.75;;;48.15;;
53879;SDS011;39791;53.184;5.486;2024-02-16T02:38:57;55.97;;;50.38;;
53879;SDS011;39791;53.184;5.486;2024-02-16T02:41:23;57.80;;;52.05;;
53879;SDS011;39791;53.184;5.486;2024-02-16T02:43:49;51.20;;;45.60;;
53879;SDS011;39791;53.184;5.486;2024-02-16T02:46:15;58.15;;;52.28;;
53879;SDS011;39791;53.184;5.486;2024-02-16T02:48:42;58.40;;;52.50;;
53879;SDS011;39791;53.184;5.486;2024-02-16T02:51:08;57.95;;;51.83;;
53879;SDS011;39791;53.184;5.486;2024-02-16T02:53:34;57.20;;;51.20;;
53879;SDS011;39791;53.184;5.486;2024-02-16T02:56:00;58.58;;;52.28;;
53879;SDS011;39791;53.184;5.486;2024-02-16T02:58:27;57.65;;;51.67;;
53879;SDS011;39791;53.184;5.486;2024-02-16T03:00:53;59.03;;;52.88;;
53879;SDS011;39791;53.184;5.486;2024-02-16T03:03:19;54.65;;;48.95;;
53879;SDS011;39791;53.184;5.486;2024-02-16T03:05:45;54.90;;;49.08;;
53879;SDS011;39791;53.184;5.486;2024-02-16T03:08:11;58.42;;;52.22;;
53879;SDS011;39791;53.184;5.486;2024-02-16T03:10:37;58.00;;;51.92;;
53879;SDS011;39791;53.184;5.486;2024-02-16T03:13:04;58.38;;;51.80;;
53879;SDS011;39791;53.184;5.486;2024-02-16T03:15:31;63.67;;;57.10;;
53879;SDS011;39791;53.184;5.486;2024-02-16T03:17:57;52.40;;;46.33;;
53879;SDS011;39791;53.184;5.486;2024-02-16T03:20:22;58.60;;;52.45;;
53879;SDS011;39791;53.184;5.486;2024-02-16T03:22:48;60.38;;;54.00;;
53879;SDS011;39791;53.184;5.486;2024-02-16T03:25:14;56.67;;;50.72;;
53879;SDS011;39791;53.184;5.486;2024-02-16T03:27:40;47.13;;;41.30;;
53879;SDS011;39791;53.184;5.486;2024-02-16T03:30:07;55.30;;;49.58;;
53879;SDS011;39791;53.184;5.486;2024-02-16T03:32:33;50.15;;;44.22;;
53879;SDS011;39791;53.184;5.486;2024-02-16T03:34:59;60.67;;;54.58;;
53879;SDS011;39791;53.184;5.486;2024-02-16T03:37:25;53.50;;;47.90;;
53879;SDS011;39791;53.184;5.486;2024-02-16T03:39:51;48.25;;;42.92;;
53879;SDS011;39791;53.184;5.486;2024-02-16T03:42:18;57.83;;;51.75;;
53879;SDS011;39791;53.184;5.486;2024-02-16T03:44:44;56.95;;;51.33;;
53879;SDS011;39791;53.184;5.486;2024-02-16T03:47:10;49.63;;;44.25;;
53879;SDS011;39791;53.184;5.486;2024-02-16T03:49:36;55.00;;;49.47;;
53879;SDS011;39791;53.184;5.486;2024-02-16T03:52:02;55.65;;;49.78;;
53879;SDS011;39791;53.184;5.486;2024-02-16T03:54:28;61.15;;;55.05;;
53879;SDS011;39791;53.184;5.486;2024-02-16T03:56:54;56.88;;;50.95;;
53879;SDS011;39791;53.184;5.486;2024-02-16T03:59:20;49.90;;;43.72;;
53879;SDS011;39791;53.184;5.486;2024-02-16T04:01:46;48.42;;;42.65;;
53879;SDS011;39791;53.184;5.486;2024-02-16T04:04:12;56.30;;;50.72;;
53879;SDS011;39791;53.184;5.486;2024-02-16T04:06:38;55.08;;;49.35;;
53879;SDS011;39791;53.184;5.486;2024-02-16T04:09:04;47.85;;;42.65;;
53879;SDS011;39791;53.184;5.486;2024-02-16T04:11:33;49.15;;;43.85;;
53879;SDS011;39791;53.184;5.486;2024-02-16T04:14:00;55.47;;;49.60;;
53879;SDS011;39791;53.184;5.486;2024-02-16T04:16:26;61.47;;;55.42;;
53879;SDS011;39791;53.184;5.486;2024-02-16T04:18:51;55.13;;;49.47;;
53879;SDS011;39791;53.184;5.486;2024-02-16T04:21:17;60.95;;;54.92;;
53879;SDS011;39791;53.184;5.486;2024-02-16T04:23:43;58.85;;;52.85;;
53879;SDS011;39791;53.184;5.486;2024-02-16T04:26:09;52.92;;;47.10;;
53879;SDS011;39791;53.184;5.486;2024-02-16T04:28:35;58.03;;;51.83;;
53879;SDS011;39791;53.184;5.486;2024-02-16T04:31:01;57.42;;;51.42;;
53879;SDS011;39791;53.184;5.486;2024-02-16T04:33:27;56.13;;;50.03;;
53879;SDS011;39791;53.184;5.486;2024-02-16T04:35:52;55.28;;;49.55;;
53879;SDS011;39791;53.184;5.486;2024-02-16T04:38:18;53.28;;;47.67;;
53879;SDS011;39791;53.184;5.486;2024-02-16T04:40:45;52.38;;;46.80;;
53879;SDS011;39791;53.184;5.486;2024-02-16T04:43:11;51.63;;;46.20;;
53879;SDS011;39791;53.184;5.486;2024-02-16T04:45:36;49.45;;;44.15;;
53879;SDS011;39791;53.184;5.486;2024-02-16T04:48:05;49.22;;;43.92;;
53879;SDS011;39791;53.184;5.486;2024-02-16T04:50:31;49.05;;;42.95;;
53879;SDS011;39791;53.184;5.486;2024-02-16T04:52:58;47.55;;;42.08;;
53879;SDS011;39791;53.184;5.486;2024-02-16T04:55:24;50.83;;;45.53;;
53879;SDS011;39791;53.184;5.486;2024-02-16T04:57:49;56.70;;;51.05;;
53879;SDS011;39791;53.184;5.486;2024-02-16T05:00:16;56.17;;;50.53;;
53879;SDS011;39791;53.184;5.486;2024-02-16T05:02:41;55.85;;;50.25;;
53879;SDS011;39791;53.184;5.486;2024-02-16T05:05:07;47.00;;;41.90;;
53879;SDS011;39791;53.184;5.486;2024-02-16T05:07:33;47.97;;;41.17;;
53879;SDS011;39791;53.184;5.486;2024-02-16T05:10:01;46.67;;;41.60;;
53879;SDS011;39791;53.184;5.486;2024-02-16T05:12:27;52.13;;;46.55;;
53879;SDS011;39791;53.184;5.486;2024-02-16T05:14:53;56.90;;;51.10;;
53879;SDS011;39791;53.184;5.486;2024-02-16T05:17:19;50.42;;;45.20;;
53879;SDS011;39791;53.184;5.486;2024-02-16T05:19:47;55.72;;;50.17;;
53879;SDS011;39791;53.184;5.486;2024-02-16T05:22:13;53.28;;;47.72;;
53879;SDS011;39791;53.184;5.486;2024-02-16T05:24:40;45.65;;;40.83;;
53879;SDS011;39791;53.184;5.486;2024-02-16T05:27:05;58.38;;;52.38;;
53879;SDS011;39791;53.184;5.486;2024-02-16T05:29:31;58.55;;;52.75;;
53879;SDS011;39791;53.184;5.486;2024-02-16T05:31:56;47.53;;;42.38;;
53879;SDS011;39791;53.184;5.486;2024-02-16T05:34:22;60.85;;;54.88;;
53879;SDS011;39791;53.184;5.486;2024-02-16T05:36:49;61.40;;;55.30;;
53879;SDS011;39791;53.184;5.486;2024-02-16T05:39:15;57.33;;;51.45;;
53879;SDS011;39791;53.184;5.486;2024-02-16T05:41:51;56.25;;;50.53;;
53879;SDS011;39791;53.184;5.486;2024-02-16T05:44:18;57.28;;;51.45;;
53879;SDS011;39791;53.184;5.486;2024-02-16T05:46:44;50.20;;;42.78;;
53879;SDS011;39791;53.184;5.486;2024-02-16T05:49:10;57.42;;;51.63;;
53879;SDS011;39791;53.184;5.486;2024-02-16T05:51:39;52.28;;;46.60;;
53879;SDS011;39791;53.184;5.486;2024-02-16T05:54:06;62.55;;;56.30;;
53879;SDS011;39791;53.184;5.486;2024-02-16T05:56:33;57.28;;;51.50;;
53879;SDS011;39791;53.184;5.486;2024-02-16T05:59:04;49.55;;;44.15;;
53879;SDS011;39791;53.184;5.486;2024-02-16T06:01:30;55.30;;;49.65;;
53879;SDS011;39791;53.184;5.486;2024-02-16T06:03:56;56.97;;;51.20;;
53879;SDS011;39791;53.184;5.486;2024-02-16T06:06:22;54.78;;;49.15;;
53879;SDS011;39791;53.184;5.486;2024-02-16T06:08:47;47.63;;;40.60;;
53879;SDS011;39791;53.184;5.486;2024-02-16T06:11:13;56.40;;;48.95;;
53879;SDS011;39791;53.184;5.486;2024-02-16T06:13:38;53.20;;;47.40;;
53879;SDS011;39791;53.184;5.486;2024-02-16T06:16:05;50.40;;;44.97;;
53879;SDS011;39791;53.184;5.486;2024-02-16T06:18:33;49.05;;;43.85;;
53879;SDS011;39791;53.184;5.486;2024-02-16T06:20:59;50.13;;;44.63;;
53879;SDS011;39791;53.184;5.486;2024-02-16T06:23:25;58.03;;;52.15;;
53879;SDS011;39791;53.184;5.486;2024-02-16T06:25:50;57.25;;;51.47;;
53879;SDS011;39791;53.184;5.486;2024-02-16T06:28:16;50.95;;;45.55;;
53879;SDS011;39791;53.184;5.486;2024-02-16T06:30:42;57.25;;;51.45;;
53879;SDS011;39791;53.184;5.486;2024-02-16T06:33:07;58.33;;;52.17;;
53879;SDS011;39791;53.184;5.486;2024-02-16T06:35:33;58.53;;;52.40;;
53879;SDS011;39791;53.184;5.486;2024-02-16T06:37:58;57.80;;;51.78;;
53879;SDS011;39791;53.184;5.486;2024-02-16T06:40:24;57.13;;;51.22;;
53879;SDS011;39791;53.184;5.486;2024-02-16T06:42:51;50.60;;;45.28;;
53879;SDS011;39791;53.184;5.486;2024-02-16T06:45:17;55.78;;;50.08;;
53879;SDS011;39791;53.184;5.486;2024-02-16T06:47:42;55.00;;;49.35;;
53879;SDS011;39791;53.184;5.486;2024-02-16T06:50:08;55.50;;;49.70;;
53879;SDS011;39791;53.184;5.486;2024-02-16T06:52:34;55.38;;;49.30;;
53879;SDS011;39791;53.184;5.486;2024-02-16T06:54:59;55.65;;;50.08;;
53879;SDS011;39791;53.184;5.486;2024-02-16T06:57:25;58.88;;;52.92;;
53879;SDS011;39791;53.184;5.486;2024-02-16T06:59:51;55.65;;;50.20;;
53879;SDS011;39791;53.184;5.486;2024-02-16T07:02:18;47.22;;;42.15;;
53879;SDS011;39791;53.184;5.486;2024-02-16T07:04:44;55.88;;;50.17;;
53879;SDS011;39791;53.184;5.486;2024-02-16T07:07:10;50.13;;;44.63;;
53879;SDS011;39791;53.184;5.486;2024-02-16T07:09:36;57.25;;;51.35;;
53879;SDS011;39791;53.184;5.486;2024-02-16T07:12:05;56.67;;;50.58;;
53879;SDS011;39791;53.184;5.486;2024-02-16T07:14:34;61.75;;;55.35;;
53879;SDS011;39791;53.184;5.486;2024-02-16T07:17:00;50.08;;;43.65;;
53879;SDS011;39791;53.184;5.486;2024-02-16T07:19:26;54.22;;;48.53;;
53879;SDS011;39791;53.184;5.486;2024-02-16T07:21:51;52.65;;;47.00;;
53879;SDS011;39791;53.184;5.486;2024-02-16T07:24:17;48.13;;;42.50;;
53879;SDS011;39791;53.184;5.486;2024-02-16T07:26:43;57.55;;;51.25;;
53879;SDS011;39791;53.184;5.486;2024-02-16T07:29:08;56.50;;;50.67;;
53879;SDS011;39791;53.184;5.486;2024-02-16T07:31:34;51.97;;;45.58;;
53879;SDS011;39791;53.184;5.486;2024-02-16T07:34:00;58.67;;;52.38;;
53879;SDS011;39791;53.184;5.486;2024-02-16T07:36:26;57.75;;;51.80;;
53879;SDS011;39791;53.184;5.486;2024-02-16T07:38:52;48.90;;;43.15;;
53879;SDS011;39791;53.184;5.486;2024-02-16T07:41:17;58.08;;;52.08;;
53879;SDS011;39791;53.184;5.486;2024-02-16T07:43:43;58.78;;;52.67;;
53879;SDS011;39791;53.184;5.486;2024-02-16T07:46:08;58.60;;;52.42;;
53879;SDS011;39791;53.184;5.486;2024-02-16T07:48:34;53.25;;;47.17;;
53879;SDS011;39791;53.184;5.486;2024-02-16T07:51:00;62.22;;;55.63;;
53879;SDS011;39791;53.184;5.486;2024-02-16T07:53:28;63.25;;;56.38;;
53879;SDS011;39791;53.184;5.486;2024-02-16T07:55:54;62.88;;;56.47;;
53879;SDS011;39791;53.184;5.486;2024-02-16T07:58:20;57.03;;;50.33;;
53879;SDS011;39791;53.184;5.486;2024-02-16T08:00:45;59.50;;;53.35;;
53879;SDS011;39791;53.184;5.486;2024-02-16T08:03:11;60.88;;;54.60;;
53879;SDS011;39791;53.184;5.486;2024-02-16T08:05:36;55.45;;;49.67;;
53879;SDS011;39791;53.184;5.486;2024-02-16T08:08:02;54.75;;;48.83;;
53879;SDS011;39791;53.184;5.486;2024-02-16T08:10:28;62.45;;;55.72;;
53879;SDS011;39791;53.184;5.486;2024-02-16T08:12:54;62.00;;;55.50;;
53879;SDS011;39791;53.184;5.486;2024-02-16T08:15:20;71.40;;;64.10;;
53879;SDS011;39791;53.184;5.486;2024-02-16T08:17:49;66.07;;;59.20;;
53879;SDS011;39791;53.184;5.486;2024-02-16T08:20:17;56.83;;;49.95;;
53879;SDS011;39791;53.184;5.486;2024-02-16T08:22:43;62.25;;;55.58;;
53879;SDS011;39791;53.184;5.486;2024-02-16T08:25:09;61.67;;;55.30;;
53879;SDS011;39791;53.184;5.486;2024-02-16T08:27:34;59.60;;;53.30;;
53879;SDS011;39791;53.184;5.486;2024-02-16T08:30:00;62.60;;;55.97;;
53879;SDS011;39791;53.184;5.486;2024-02-16T08:32:27;57.50;;;51.20;;
53879;SDS011;39791;53.184;5.486;2024-02-16T08:34:53;59.35;;;52.42;;
53879;SDS011;39791;53.184;5.486;2024-02-16T08:37:21;58.10;;;51.75;;
53879;SDS011;39791;53.184;5.486;2024-02-16T08:39:46;56.88;;;50.67;;
53879;SDS011;39791;53.184;5.486;2024-02-16T08:42:13;59.08;;;51.88;;
53879;SDS011;39791;53.184;5.486;2024-02-16T08:44:39;54.00;;;48.35;;
53879;SDS011;39791;53.184;5.486;2024-02-16T08:47:05;54.38;;;47.08;;
53879;SDS011;39791;53.184;5.486;2024-02-16T08:49:32;51.28;;;45.55;;
53879;SDS011;39791;53.184;5.486;2024-02-16T08:51:58;51.05;;;45.55;;
53879;SDS011;39791;53.184;5.486;2024-02-16T08:54:24;51.22;;;45.92;;
53879;SDS011;39791;53.184;5.486;2024-02-16T08:56:50;58.15;;;51.55;;
53879;SDS011;39791;53.184;5.486;2024-02-16T08:59:18;52.63;;;46.90;;
53879;SDS011;39791;53.184;5.486;2024-02-16T09:01:43;53.47;;;47.63;;
53879;SDS011;39791;53.184;5.486;2024-02-16T09:04:09;59.72;;;53.38;;
53879;SDS011;39791;53.184;5.486;2024-02-16T09:06:34;58.88;;;52.33;;
53879;SDS011;39791;53.184;5.486;2024-02-16T09:09:00;54.15;;;48.17;;
53879;SDS011;39791;53.184;5.486;2024-02-16T09:11:26;47.70;;;42.95;;
53879;SDS011;39791;53.184;5.486;2024-02-16T09:13:52;49.00;;;41.70;;
53879;SDS011;39791;53.184;5.486;2024-02-16T09:16:18;52.50;;;45.42;;
53879;SDS011;39791;53.184;5.486;2024-02-16T09:18:44;59.67;;;53.28;;
53879;SDS011;39791;53.184;5.486;2024-02-16T09:21:10;58.20;;;52.03;;
53879;SDS011;39791;53.184;5.486;2024-02-16T09:23:36;58.03;;;51.55;;
53879;SDS011;39791;53.184;5.486;2024-02-16T09:26:02;59.60;;;53.20;;
53879;SDS011;39791;53.184;5.486;2024-02-16T09:28:28;56.25;;;49.92;;
53879;SDS011;39791;53.184;5.486;2024-02-16T09:30:54;49.72;;;44.22;;
53879;SDS011;39791;53.184;5.486;2024-02-16T09:33:21;51.05;;;42.38;;
53879;SDS011;39791;53.184;5.486;2024-02-16T09:35:47;64.22;;;55.38;;
53879;SDS011;39791;53.184;5.486;2024-02-16T09:38:13;61.60;;;50.53;;
53879;SDS011;39791;53.184;5.486;2024-02-16T09:40:39;71.20;;;58.00;;
53879;SDS011;39791;53.184;5.486;2024-02-16T09:43:05;72.05;;;57.85;;
53879;SDS011;39791;53.184;5.486;2024-02-16T09:45:31;75.47;;;62.30;;
53879;SDS011;39791;53.184;5.486;2024-02-16T09:47:58;72.65;;;58.38;;
53879;SDS011;39791;53.184;5.486;2024-02-16T09:50:24;78.50;;;58.05;;
53879;SDS011;39791;53.184;5.486;2024-02-16T09:52:51;81.15;;;57.80;;
53879;SDS011;39791;53.184;5.486;2024-02-16T09:55:19;89.88;;;58.03;;
53879;SDS011;39791;53.184;5.486;2024-02-16T09:57:45;91.20;;;63.67;;
53879;SDS011;39791;53.184;5.486;2024-02-16T10:00:11;99.25;;;58.75;;
53879;SDS011;39791;53.184;5.486;2024-02-16T10:02:40;95.68;;;58.45;;
53879;SDS011;39791;53.184;5.486;2024-02-16T10:05:12;107.32;;;65.15;;
53879;SDS011;39791;53.184;5.486;2024-02-16T10:07:40;99.30;;;64.72;;
53879;SDS011;39791;53.184;5.486;2024-02-16T10:10:06;91.97;;;60.33;;
53879;SDS011;39791;53.184;5.486;2024-02-16T10:12:31;91.20;;;59.63;;
53879;SDS011;39791;53.184;5.486;2024-02-16T10:14:57;95.07;;;60.05;;
53879;SDS011;39791;53.184;5.486;2024-02-16T10:17:24;103.22;;;57.03;;
53879;SDS011;39791;53.184;5.486;2024-02-16T10:19:57;100.63;;;60.40;;
53879;SDS011;39791;53.184;5.486;2024-02-16T10:22:24;97.07;;;62.80;;
53879;SDS011;39791;53.184;5.486;2024-02-16T10:24:49;96.90;;;59.25;;
53879;SDS011;39791;53.184;5.486;2024-02-16T10:27:15;83.03;;;59.85;;
53879;SDS011;39791;53.184;5.486;2024-02-16T10:29:43;90.97;;;58.92;;
53879;SDS011;39791;53.184;5.486;2024-02-16T10:32:12;89.65;;;59.88;;
53879;SDS011;39791;53.184;5.486;2024-02-16T10:34:38;84.38;;;60.88;;
53879;SDS011;39791;53.184;5.486;2024-02-16T10:37:06;83.25;;;55.78;;
53879;SDS011;39791;53.184;5.486;2024-02-16T10:39:33;71.70;;;55.45;;
53879;SDS011;39791;53.184;5.486;2024-02-16T10:41:59;72.78;;;54.80;;
53879;SDS011;39791;53.184;5.486;2024-02-16T10:44:27;63.22;;;51.78;;
53879;SDS011;39791;53.184;5.486;2024-02-16T10:46:54;62.25;;;50.55;;
53879;SDS011;39791;53.184;5.486;2024-02-16T10:49:22;62.83;;;52.33;;
53879;SDS011;39791;53.184;5.486;2024-02-16T10:51:50;63.95;;;55.08;;
53879;SDS011;39791;53.184;5.486;2024-02-16T10:54:21;56.90;;;50.08;;
53879;SDS011;39791;53.184;5.486;2024-02-16T10:56:53;59.10;;;52.35;;
53879;SDS011;39791;53.184;5.486;2024-02-16T10:59:19;58.08;;;49.38;;
53879;SDS011;39791;53.184;5.486;2024-02-16T11:01:45;56.72;;;48.78;;
53879;SDS011;39791;53.184;5.486;2024-02-16T11:04:15;55.55;;;47.55;;
53879;SDS011;39791;53.184;5.486;2024-02-16T11:09:38;54.35;;;48.70;;
53879;SDS011;39791;53.184;5.486;2024-02-16T11:12:05;55.95;;;48.88;;
53879;SDS011;39791;53.184;5.486;2024-02-16T11:14:40;54.95;;;49.20;;
53879;SDS011;39791;53.184;5.486;2024-02-16T11:17:08;51.88;;;45.78;;
53879;SDS011;39791;53.184;5.486;2024-02-16T11:19:37;51.35;;;45.78;;
53879;SDS011;39791;53.184;5.486;2024-02-16T11:22:06;51.90;;;46.38;;
53879;SDS011;39791;53.184;5.486;2024-02-16T11:24:36;53.78;;;46.17;;
53879;SDS011;39791;53.184;5.486;2024-02-16T11:27:03;50.10;;;44.58;;
53879;SDS011;39791;53.184;5.486;2024-02-16T11:29:33;48.92;;;43.55;;
53879;SDS011;39791;53.184;5.486;2024-02-16T11:32:01;52.35;;;46.00;;
53879;SDS011;39791;53.184;5.486;2024-02-16T11:34:28;52.28;;;45.40;;
53879;SDS011;39791;53.184;5.486;2024-02-16T11:36:55;47.53;;;42.65;;
53879;SDS011;39791;53.184;5.486;2024-02-16T11:39:22;51.28;;;43.92;;
53879;SDS011;39791;53.184;5.486;2024-02-16T11:41:48;49.72;;;42.72;;
53879;SDS011;39791;53.184;5.486;2024-02-16T11:44:23;54.65;;;42.72;;
53879;SDS011;39791;53.184;5.486;2024-02-16T11:46:53;48.95;;;43.20;;
53879;SDS011;39791;53.184;5.486;2024-02-16T11:49:19;47.20;;;41.67;;
53879;SDS011;39791;53.184;5.486;2024-02-16T11:51:44;46.20;;;39.08;;
53879;SDS011;39791;53.184;5.486;2024-02-16T11:54:10;52.55;;;38.53;;
53879;SDS011;39791;53.184;5.486;2024-02-16T11:56:37;50.63;;;38.70;;
53879;SDS011;39791;53.184;5.486;2024-02-16T11:59:04;51.15;;;43.38;;
53879;SDS011;39791;53.184;5.486;2024-02-16T12:01:31;52.55;;;41.97;;
53879;SDS011;39791;53.184;5.486;2024-02-16T12:03:59;48.03;;;40.55;;
53879;SDS011;39791;53.184;5.486;2024-02-16T12:06:24;51.70;;;43.40;;
53879;SDS011;39791;53.184;5.486;2024-02-16T12:08:50;52.13;;;40.45;;
53879;SDS011;39791;53.184;5.486;2024-02-16T12:11:19;48.67;;;36.63;;
53879;SDS011;39791;53.184;5.486;2024-02-16T12:13:45;49.30;;;42.60;;
53879;SDS011;39791;53.184;5.486;2024-02-16T12:16:11;50.13;;;41.90;;
53879;SDS011;39791;53.184;5.486;2024-02-16T12:18:37;50.28;;;41.72;;
53879;SDS011;39791;53.184;5.486;2024-02-16T12:21:03;54.45;;;42.53;;
53879;SDS011;39791;53.184;5.486;2024-02-16T12:23:30;55.72;;;45.60;;
53879;SDS011;39791;53.184;5.486;2024-02-16T12:25:57;52.90;;;43.78;;
53879;SDS011;39791;53.184;5.486;2024-02-16T12:28:24;55.35;;;44.13;;
53879;SDS011;39791;53.184;5.486;2024-02-16T12:30:51;61.35;;;44.92;;
53879;SDS011;39791;53.184;5.486;2024-02-16T12:33:16;55.97;;;42.40;;
53879;SDS011;39791;53.184;5.486;2024-02-16T12:35:42;63.97;;;45.70;;
53879;SDS011;39791;53.184;5.486;2024-02-16T12:38:08;57.72;;;44.15;;
53879;SDS011;39791;53.184;5.486;2024-02-16T12:40:34;59.20;;;45.00;;
53879;SDS011;39791;53.184;5.486;2024-02-16T12:43:00;65.15;;;46.22;;
53879;SDS011;39791;53.184;5.486;2024-02-16T12:45:26;57.50;;;46.45;;
53879;SDS011;39791;53.184;5.486;2024-02-16T12:47:51;64.55;;;49.10;;
53879;SDS011;39791;53.184;5.486;2024-02-16T12:50:17;72.32;;;52.33;;
53879;SDS011;39791;53.184;5.486;2024-02-16T12:52:43;77.05;;;52.35;;
53879;SDS011;39791;53.184;5.486;2024-02-16T12:55:09;71.70;;;52.60;;
53879;SDS011;39791;53.184;5.486;2024-02-16T12:57:35;70.90;;;51.72;;
53879;SDS011;39791;53.184;5.486;2024-02-16T13:00:01;72.20;;;51.00;;
53879;SDS011;39791;53.184;5.486;2024-02-16T13:02:27;79.78;;;49.72;;
53879;SDS011;39791;53.184;5.486;2024-02-16T13:04:54;75.55;;;48.13;;
53879;SDS011;39791;53.184;5.486;2024-02-16T13:07:20;80.78;;;49.25;;
53879;SDS011;39791;53.184;5.486;2024-02-16T13:09:45;81.65;;;47.30;;
53879;SDS011;39791;53.184;5.486;2024-02-16T13:12:11;85.25;;;50.78;;
53879;SDS011;39791;53.184;5.486;2024-02-16T13:14:36;86.03;;;50.90;;
53879;SDS011;39791;53.184;5.486;2024-02-16T13:17:03;103.60;;;52.50;;
53879;SDS011;39791;53.184;5.486;2024-02-16T13:19:29;101.72;;;48.97;;
53879;SDS011;39791;53.184;5.486;2024-02-16T13:21:54;106.75;;;50.80;;
53879;SDS011;39791;53.184;5.486;2024-02-16T13:24:20;95.97;;;47.13;;
53879;SDS011;39791;53.184;5.486;2024-02-16T13:26:46;98.45;;;47.35;;
53879;SDS011;39791;53.184;5.486;2024-02-16T13:29:11;92.82;;;45.58;;
53879;SDS011;39791;53.184;5.486;2024-02-16T13:31:37;80.70;;;42.08;;
53879;SDS011;39791;53.184;5.486;2024-02-16T13:34:05;92.70;;;41.35;;
53879;SDS011;39791;53.184;5.486;2024-02-16T13:36:30;96.50;;;43.55;;
53879;SDS011;39791;53.184;5.486;2024-02-16T13:38:56;104.68;;;40.70;;
53879;SDS011;39791;53.184;5.486;2024-02-16T13:41:21;85.25;;;40.20;;
53879;SDS011;39791;53.184;5.486;2024-02-16T13:43:47;104.20;;;44.80;;
53879;SDS011;39791;53.184;5.486;2024-02-16T13:46:13;88.95;;;42.50;;
53879;SDS011;39791;53.184;5.486;2024-02-16T13:48:39;82.30;;;43.70;;
53879;SDS011;39791;53.184;5.486;2024-02-16T13:51:06;96.20;;;43.95;;
53879;SDS011;39791;53.184;5.486;2024-02-16T13:53:32;89.57;;;41.20;;
53879;SDS011;39791;53.184;5.486;2024-02-16T13:55:57;78.60;;;42.75;;
53879;SDS011;39791;53.184;5.486;2024-02-16T13:58:26;76.25;;;41.17;;
53879;SDS011;39791;53.184;5.486;2024-02-16T14:00:52;86.68;;;44.95;;
53879;SDS011;39791;53.184;5.486;2024-02-16T14:03:18;79.55;;;43.92;;
53879;SDS011;39791;53.184;5.486;2024-02-16T14:05:44;84.22;;;45.00;;
53879;SDS011;39791;53.184;5.486;2024-02-16T14:08:11;80.00;;;46.05;;
53879;SDS011;39791;53.184;5.486;2024-02-16T14:10:37;83.30;;;43.38;;
53879;SDS011;39791;53.184;5.486;2024-02-16T14:13:03;78.95;;;47.58;;
53879;SDS011;39791;53.184;5.486;2024-02-16T14:15:29;78.30;;;48.35;;
53879;SDS011;39791;53.184;5.486;2024-02-16T14:17:55;75.63;;;48.58;;